createdAt,value
2022-12-04T00:00:55.750Z,88.83
2022-12-04T00:03:44.354Z,80.53
2022-12-04T00:06:34.942Z,88.80
2022-12-04T00:09:23.712Z,86.20
2022-12-04T00:12:12.245Z,87.37
2022-12-04T00:15:24.657Z,93.37
2022-12-04T00:18:09.375Z,87.37
2022-12-04T00:20:58.138Z,87.53
2022-12-04T00:23:48.548Z,85.73
2022-12-04T00:26:37.071Z,85.87
2022-12-04T00:29:25.636Z,73.57
2022-12-04T00:32:14.089Z,84.50
2022-12-04T00:35:02.649Z,85.73
2022-12-04T00:37:51.342Z,93.83
2022-12-04T00:40:41.326Z,96.73
2022-12-04T00:43:31.349Z,97.37
2022-12-04T00:46:20.617Z,95.13
2022-12-04T00:49:09.206Z,86.53
2022-12-04T00:51:57.726Z,93.50
2022-12-04T00:54:46.204Z,99.40
2022-12-04T00:57:36.870Z,90.57
2022-12-04T01:00:25.398Z,89.03
2022-12-04T01:03:13.927Z,87.57
2022-12-04T01:06:03.659Z,84.10
2022-12-04T01:08:53.214Z,86.00
2022-12-04T01:11:41.847Z,82.53
2022-12-04T01:14:31.842Z,83.57
2022-12-04T01:17:20.359Z,86.90
2022-12-04T01:20:09.290Z,90.27
2022-12-04T01:22:57.781Z,86.43
2022-12-04T01:25:52.699Z,91.70
2022-12-04T01:28:41.930Z,88.37
2022-12-04T01:31:32.282Z,83.10
2022-12-04T01:34:20.838Z,93.77
2022-12-04T01:37:10.021Z,89.87
2022-12-04T01:39:58.790Z,87.00
2022-12-04T01:42:47.364Z,85.13
2022-12-04T01:45:40.777Z,81.70
2022-12-04T01:48:32.911Z,75.93
2022-12-04T01:51:25.951Z,73.50
2022-12-04T01:54:19.980Z,74.50
2022-12-04T01:57:13.279Z,68.80
2022-12-04T02:00:06.847Z,69.00
2022-12-04T02:02:55.696Z,71.50
2022-12-04T02:05:45.676Z,68.47
2022-12-04T02:08:36.343Z,67.23
2022-12-04T02:11:31.879Z,66.03
2022-12-04T02:14:32.190Z,66.33
2022-12-04T02:17:28.803Z,68.97
2022-12-04T02:20:26.195Z,72.77
2022-12-04T02:23:47.605Z,65.20
2022-12-04T02:26:44.188Z,75.33
2022-12-04T02:29:41.594Z,67.87
2022-12-04T02:32:36.396Z,71.70
2022-12-04T02:35:30.236Z,67.00
2022-12-04T02:38:25.048Z,68.03
2022-12-04T02:41:18.229Z,68.80
2022-12-04T02:44:11.931Z,69.70
2022-12-04T02:47:06.014Z,71.37
2022-12-04T02:49:58.292Z,69.53
2022-12-04T02:52:50.712Z,73.93
2022-12-04T02:55:43.502Z,74.03
2022-12-04T02:58:35.734Z,69.93
2022-12-04T03:01:29.211Z,68.63
2022-12-04T03:04:21.699Z,74.67
2022-12-04T03:07:15.957Z,73.20
2022-12-04T03:10:08.185Z,68.87
2022-12-04T03:13:01.157Z,80.27
2022-12-04T03:15:54.583Z,71.00
2022-12-04T03:18:45.898Z,71.37
2022-12-04T03:21:40.090Z,77.43
2022-12-04T03:24:32.087Z,75.47
2022-12-04T03:27:31.023Z,69.70
2022-12-04T03:30:21.947Z,71.27
2022-12-04T03:33:14.692Z,67.40
2022-12-04T03:36:11.192Z,72.40
2022-12-04T03:39:09.673Z,67.80
2022-12-04T03:42:03.088Z,69.70
2022-12-04T03:44:59.195Z,71.80
2022-12-04T03:47:54.399Z,66.20
2022-12-04T03:50:48.944Z,62.93
2022-12-04T03:53:40.732Z,60.30
2022-12-04T03:56:34.212Z,65.33
2022-12-04T03:59:28.272Z,59.53
2022-12-04T04:02:20.979Z,62.33
2022-12-04T04:05:12.232Z,64.30
2022-12-04T04:08:17.873Z,67.47
2022-12-04T04:11:11.953Z,63.73
2022-12-04T04:14:24.406Z,51.90
2022-12-04T04:17:38.708Z,48.63
2022-12-04T04:20:53.273Z,50.63
2022-12-04T04:24:14.798Z,47.67
2022-12-04T04:27:04.296Z,49.53
2022-12-04T04:29:54.854Z,50.27
2022-12-04T04:32:50.091Z,52.37
2022-12-04T04:35:45.084Z,52.97
2022-12-04T04:38:40.575Z,52.30
2022-12-04T04:41:37.137Z,52.47
2022-12-04T04:44:30.586Z,50.53
2022-12-04T04:47:28.484Z,49.27
2022-12-04T04:50:18.379Z,55.83
2022-12-04T04:53:11.340Z,55.33
2022-12-04T04:56:00.566Z,57.60
2022-12-04T04:58:49.120Z,58.37
2022-12-04T05:01:39.417Z,59.70
2022-12-04T05:04:29.211Z,60.13
2022-12-04T05:07:17.678Z,58.93
2022-12-04T05:10:07.377Z,65.93
2022-12-04T05:12:55.803Z,60.70
2022-12-04T05:15:44.515Z,62.97
2022-12-04T05:18:34.676Z,63.77
2022-12-04T05:21:23.508Z,62.90
2022-12-04T05:24:12.030Z,58.80
2022-12-04T05:27:00.485Z,64.83
2022-12-04T05:29:48.957Z,64.07
2022-12-04T05:32:37.397Z,63.60
2022-12-04T05:35:25.922Z,64.10
2022-12-04T05:38:15.824Z,60.53
2022-12-04T05:41:06.815Z,62.07
2022-12-04T05:43:55.343Z,57.60
2022-12-04T05:46:43.935Z,59.87
2022-12-04T05:49:32.809Z,60.70
2022-12-04T05:52:21.374Z,58.00
2022-12-04T05:55:11.388Z,54.97
2022-12-04T05:57:59.900Z,56.37
2022-12-04T06:00:48.408Z,56.60
2022-12-04T06:03:36.933Z,53.20
2022-12-04T06:06:26.669Z,49.97
2022-12-04T06:09:15.359Z,53.70
2022-12-04T06:12:05.825Z,51.40
2022-12-04T06:14:54.385Z,53.93
2022-12-04T06:17:42.985Z,52.93
2022-12-04T06:20:31.612Z,54.97
2022-12-04T06:23:20.123Z,53.87
2022-12-04T06:26:09.885Z,48.57
2022-12-04T06:29:01.087Z,58.63
2022-12-04T06:31:49.663Z,55.73
2022-12-04T06:34:38.169Z,60.77
2022-12-04T06:37:27.229Z,52.10
2022-12-04T06:40:15.767Z,55.13
2022-12-04T06:43:04.222Z,51.30
2022-12-04T06:46:02.904Z,64.43
2022-12-04T06:48:52.248Z,58.13
2022-12-04T06:51:41.099Z,57.73
2022-12-04T06:54:29.663Z,54.63
2022-12-04T06:57:18.169Z,55.47
2022-12-04T07:00:08.146Z,59.13
2022-12-04T07:02:58.253Z,59.73
2022-12-04T07:05:46.789Z,68.83
2022-12-04T07:08:35.334Z,62.80
2022-12-04T07:11:24.793Z,59.53
2022-12-04T07:14:14.692Z,57.17
2022-12-04T07:17:03.377Z,57.30
2022-12-04T07:19:53.321Z,52.47
2022-12-04T07:22:42.182Z,54.70
2022-12-04T07:25:31.354Z,51.40
2022-12-04T07:28:19.869Z,53.70
2022-12-04T07:31:10.161Z,50.00
2022-12-04T07:33:59.778Z,47.00
2022-12-04T07:36:49.587Z,50.07
2022-12-04T07:39:38.131Z,45.33
2022-12-04T07:42:26.660Z,49.37
2022-12-04T07:45:15.279Z,42.27
2022-12-04T07:48:03.892Z,45.80
2022-12-04T07:50:52.544Z,50.53
2022-12-04T07:53:43.150Z,45.87
2022-12-04T07:56:31.765Z,44.53
2022-12-04T07:59:20.543Z,42.23
2022-12-04T08:02:09.089Z,48.57
2022-12-04T08:04:57.635Z,47.53
2022-12-04T08:07:46.266Z,43.13
2022-12-04T08:10:36.152Z,46.83
2022-12-04T08:13:24.679Z,48.10
2022-12-04T08:16:14.431Z,47.50
2022-12-04T08:19:03.521Z,48.40
2022-12-04T08:21:52.034Z,46.03
2022-12-04T08:24:40.617Z,47.33
2022-12-04T08:27:30.509Z,45.63
2022-12-04T08:30:19.313Z,43.80
2022-12-04T08:33:07.791Z,46.30
2022-12-04T08:35:56.515Z,46.57
2022-12-04T08:38:44.981Z,45.30
2022-12-04T08:41:33.759Z,51.27
2022-12-04T08:44:27.306Z,48.07
2022-12-04T08:47:15.793Z,45.07
2022-12-04T08:50:04.576Z,41.60
2022-12-04T08:52:53.071Z,49.87
2022-12-04T08:55:41.597Z,45.37
2022-12-04T08:58:30.153Z,50.17
2022-12-04T09:01:20.282Z,43.13
2022-12-04T09:04:08.795Z,43.87
2022-12-04T09:06:57.447Z,44.57
2022-12-04T09:09:48.437Z,43.23
2022-12-04T09:12:37.195Z,40.93
2022-12-04T09:15:25.637Z,42.57
2022-12-04T09:18:15.485Z,39.77
2022-12-04T09:21:06.854Z,41.93
2022-12-04T09:23:55.406Z,40.53
2022-12-04T09:26:44.095Z,40.33
2022-12-04T09:29:33.693Z,38.03
2022-12-04T09:32:22.242Z,43.17
2022-12-04T09:35:12.099Z,45.70
2022-12-04T09:38:00.589Z,44.20
2022-12-04T09:40:59.367Z,38.67
2022-12-04T09:43:53.903Z,41.40
2022-12-04T09:46:51.044Z,40.87
2022-12-04T09:49:43.236Z,41.60
2022-12-04T09:52:47.799Z,44.67
2022-12-04T09:55:40.118Z,40.00
2022-12-04T09:58:33.814Z,41.00
2022-12-04T10:01:28.264Z,44.57
2022-12-04T10:04:17.780Z,39.67
2022-12-04T10:07:10.219Z,39.93
2022-12-04T10:10:07.378Z,40.20
2022-12-04T10:13:05.416Z,42.53
2022-12-04T10:16:02.986Z,42.63
2022-12-04T10:18:58.824Z,36.57
2022-12-04T10:21:59.675Z,39.70
2022-12-04T10:24:52.894Z,42.83
2022-12-04T10:27:49.412Z,39.63
2022-12-04T10:30:39.152Z,39.20
2022-12-04T10:33:37.011Z,44.87
2022-12-04T10:36:31.909Z,40.93
2022-12-04T10:39:25.613Z,40.60
2022-12-04T10:42:25.448Z,41.80
2022-12-04T10:45:15.556Z,43.50
2022-12-04T10:48:04.551Z,41.40
2022-12-04T10:50:53.070Z,44.67
2022-12-04T10:53:41.670Z,40.60
2022-12-04T10:56:30.129Z,42.13
2022-12-04T10:59:18.605Z,43.43
2022-12-04T11:02:20.790Z,39.07
2022-12-04T11:05:25.608Z,43.73
2022-12-04T11:08:24.295Z,39.90
2022-12-04T11:11:15.534Z,42.27
2022-12-04T11:14:18.745Z,43.93
2022-12-04T11:17:08.671Z,39.03
2022-12-04T11:20:05.136Z,40.57
2022-12-04T11:22:57.054Z,42.17
2022-12-04T11:25:48.529Z,40.40
2022-12-04T11:28:42.181Z,37.33
2022-12-04T11:31:32.701Z,37.17
2022-12-04T11:34:25.640Z,40.67
2022-12-04T11:37:22.173Z,38.83
2022-12-04T11:40:19.587Z,35.70
2022-12-04T11:43:15.271Z,37.67
2022-12-04T11:46:06.621Z,37.00
2022-12-04T11:48:55.197Z,36.07
2022-12-04T11:51:53.667Z,34.03
2022-12-04T11:54:55.133Z,37.43
2022-12-04T11:57:50.753Z,39.93
2022-12-04T12:01:10.880Z,41.23
2022-12-04T12:04:19.205Z,39.17
2022-12-04T12:07:21.563Z,40.67
2022-12-04T12:10:18.377Z,39.10
2022-12-04T12:13:14.672Z,36.40
2022-12-04T12:16:13.412Z,40.07
2022-12-04T12:19:30.874Z,44.93
2022-12-04T12:22:32.748Z,43.90
2022-12-04T12:25:25.367Z,39.10
2022-12-04T12:28:24.714Z,40.10
2022-12-04T12:31:31.255Z,37.37
2022-12-04T12:34:28.322Z,36.63
2022-12-04T12:37:25.928Z,38.57
2022-12-04T12:40:22.741Z,38.47
2022-12-04T12:43:16.376Z,37.10
2022-12-04T12:46:11.132Z,40.90
2022-12-04T12:49:03.799Z,39.83
2022-12-04T12:51:58.413Z,42.13
2022-12-04T12:54:54.150Z,39.13
2022-12-04T12:57:45.444Z,38.47
2022-12-04T13:00:40.701Z,42.87
2022-12-04T13:03:38.962Z,42.50
2022-12-04T13:06:32.767Z,40.90
2022-12-04T13:09:26.476Z,39.07
2022-12-04T13:12:17.719Z,40.10
2022-12-04T13:15:07.455Z,46.20
2022-12-04T13:17:58.611Z,43.40
2022-12-04T13:20:53.601Z,37.93
2022-12-04T13:23:53.026Z,43.33
2022-12-04T13:26:51.586Z,43.53
2022-12-04T13:29:56.129Z,44.27
2022-12-04T13:33:17.522Z,44.87
2022-12-04T13:36:44.964Z,44.30
2022-12-04T13:40:04.793Z,42.67
2022-12-04T13:42:53.421Z,44.23
2022-12-04T13:45:46.187Z,46.67
2022-12-04T13:48:39.757Z,43.30
2022-12-04T13:51:37.616Z,45.17
2022-12-04T13:54:32.166Z,44.70
2022-12-04T13:57:23.296Z,45.23
2022-12-04T14:00:27.298Z,44.03
2022-12-04T14:03:26.313Z,42.17
2022-12-04T14:06:24.262Z,43.37
2022-12-04T14:09:23.565Z,40.73
2022-12-04T14:12:15.660Z,37.27
2022-12-04T14:15:07.599Z,40.10
2022-12-04T14:18:02.693Z,39.90
2022-12-04T14:21:01.333Z,36.23
2022-12-04T14:23:50.862Z,35.87
2022-12-04T14:27:10.621Z,35.80
2022-12-04T14:30:01.017Z,33.80
2022-12-04T14:32:51.967Z,36.13
2022-12-04T14:35:47.770Z,33.20
2022-12-04T14:38:37.881Z,40.27
2022-12-04T14:41:27.279Z,34.57
2022-12-04T14:44:26.810Z,34.97
2022-12-04T14:47:25.210Z,36.50
2022-12-04T14:50:24.462Z,36.00
2022-12-04T14:53:21.691Z,34.17
2022-12-04T14:56:32.565Z,35.73
2022-12-04T14:59:24.086Z,38.90
2022-12-04T15:02:17.037Z,36.80
2022-12-04T15:05:11.069Z,35.00
2022-12-04T15:08:02.395Z,39.60
2022-12-04T15:11:10.317Z,37.37
2022-12-04T15:14:06.758Z,35.67
2022-12-04T15:17:03.709Z,38.70
2022-12-04T15:19:53.375Z,37.77
2022-12-04T15:22:42.446Z,39.87
2022-12-04T15:25:38.418Z,38.07
2022-12-04T15:28:32.441Z,35.20
2022-12-04T15:31:26.778Z,34.90
2022-12-04T15:34:18.899Z,36.87
2022-12-04T15:37:10.531Z,38.37
2022-12-04T15:40:00.032Z,35.33
2022-12-04T15:42:48.697Z,36.83
2022-12-04T15:45:37.327Z,36.10
2022-12-04T15:48:29.360Z,34.53
2022-12-04T15:51:21.910Z,35.73
2022-12-04T15:54:16.732Z,37.53
2022-12-04T15:57:09.093Z,38.47
2022-12-04T16:00:01.312Z,35.37
2022-12-04T16:02:50.546Z,36.73
2022-12-04T16:05:40.646Z,36.93
2022-12-04T16:08:33.328Z,36.73
2022-12-04T16:11:33.790Z,35.27
2022-12-04T16:14:23.171Z,34.73
2022-12-04T16:17:14.092Z,35.03
2022-12-04T16:20:06.458Z,32.87
2022-12-04T16:22:56.548Z,33.57
2022-12-04T16:25:44.992Z,36.07
2022-12-04T16:28:33.783Z,38.13
2022-12-04T16:31:24.360Z,33.23
2022-12-04T16:34:14.334Z,41.43
2022-12-04T16:37:03.297Z,35.57
2022-12-04T16:39:53.307Z,35.70
2022-12-04T16:42:43.011Z,36.80
2022-12-04T16:45:34.799Z,37.57
2022-12-04T16:48:23.300Z,38.90
2022-12-04T16:51:18.050Z,33.30
2022-12-04T16:54:06.919Z,33.73
2022-12-04T16:56:56.832Z,30.70
2022-12-04T16:59:45.367Z,36.87
2022-12-04T17:02:33.969Z,34.60
2022-12-04T17:05:24.455Z,32.10
2022-12-04T17:08:12.982Z,34.30
2022-12-04T17:11:01.635Z,32.07
2022-12-04T17:13:51.485Z,34.00
2022-12-04T17:16:42.697Z,31.57
2022-12-04T17:19:32.531Z,34.67
2022-12-04T17:22:26.254Z,31.53
2022-12-04T17:25:15.549Z,31.27
2022-12-04T17:28:04.185Z,29.67
2022-12-04T17:30:54.012Z,30.27
2022-12-04T17:33:42.640Z,31.40
2022-12-04T17:36:31.322Z,31.47
2022-12-04T17:39:19.914Z,30.07
2022-12-04T17:42:08.389Z,28.07
2022-12-04T17:44:57.218Z,29.73
2022-12-04T17:47:47.855Z,27.13
2022-12-04T17:50:36.295Z,30.77
2022-12-04T17:53:24.728Z,34.33
2022-12-04T17:56:16.293Z,30.57
2022-12-04T17:59:05.034Z,27.17
2022-12-04T18:01:53.574Z,28.23
2022-12-04T18:04:44.135Z,27.20
2022-12-04T18:07:32.979Z,29.17
2022-12-04T18:10:21.811Z,28.20
2022-12-04T18:13:10.312Z,26.03
2022-12-04T18:16:03.693Z,28.03
2022-12-04T18:18:54.219Z,26.73
2022-12-04T18:21:44.162Z,27.70
2022-12-04T18:24:32.601Z,27.80
2022-12-04T18:27:21.884Z,24.50
2022-12-04T18:30:11.972Z,25.60
2022-12-04T18:33:00.453Z,26.93
2022-12-04T18:35:55.691Z,24.07
2022-12-04T18:38:45.613Z,26.03
2022-12-04T18:41:34.640Z,23.20
2022-12-04T18:44:23.241Z,26.13
2022-12-04T18:47:11.765Z,26.33
2022-12-04T18:50:00.626Z,27.23
2022-12-04T18:52:56.869Z,25.40
2022-12-04T18:55:48.873Z,28.27
2022-12-04T18:58:37.466Z,25.97
2022-12-04T19:01:26.115Z,25.73
2022-12-04T19:04:17.645Z,24.17
2022-12-04T19:07:06.215Z,27.87
2022-12-04T19:10:10.773Z,25.63
2022-12-04T19:13:01.205Z,28.50
2022-12-04T19:15:50.156Z,26.53
2022-12-04T19:18:38.767Z,33.00
2022-12-04T19:21:27.793Z,27.77
2022-12-04T19:24:16.502Z,27.83
2022-12-04T19:27:11.140Z,26.23
2022-12-04T19:30:01.115Z,28.87
2022-12-04T19:32:49.638Z,25.80
2022-12-04T19:35:38.128Z,28.90
2022-12-04T19:38:26.966Z,28.80
2022-12-04T19:41:17.566Z,29.20
2022-12-04T19:44:26.351Z,29.47
2022-12-04T19:47:16.519Z,31.00
2022-12-04T19:50:06.025Z,29.67
2022-12-04T19:52:54.590Z,29.30
2022-12-04T19:55:43.197Z,27.83
2022-12-04T19:58:34.853Z,30.17
2022-12-04T20:01:26.893Z,29.73
2022-12-04T20:04:17.281Z,33.07
2022-12-04T20:07:06.357Z,28.53
2022-12-04T20:09:55.997Z,29.43
2022-12-04T20:12:44.937Z,29.83
2022-12-04T20:15:39.451Z,28.30
2022-12-04T20:18:28.016Z,27.73
2022-12-04T20:21:18.021Z,31.60
2022-12-04T20:24:10.724Z,27.80
2022-12-04T20:26:59.282Z,29.00
2022-12-04T20:29:47.883Z,28.87
2022-12-04T20:32:36.419Z,29.17
2022-12-04T20:35:25.067Z,29.10
2022-12-04T20:38:15.294Z,29.93
2022-12-04T20:41:04.086Z,31.17
2022-12-04T20:43:52.736Z,28.37
2022-12-04T20:46:42.521Z,29.33
2022-12-04T20:49:31.256Z,30.87
2022-12-04T20:52:19.871Z,30.70
2022-12-04T20:55:10.942Z,32.10
2022-12-04T20:57:59.649Z,32.13
2022-12-04T21:00:48.211Z,29.90
2022-12-04T21:03:36.822Z,29.60
2022-12-04T21:06:33.957Z,29.77
2022-12-04T21:09:25.153Z,31.90
2022-12-04T21:12:32.436Z,30.60
2022-12-04T21:15:38.576Z,29.40
2022-12-04T21:18:27.205Z,28.30
2022-12-04T21:21:16.538Z,29.93
2022-12-04T21:24:06.191Z,26.23
2022-12-04T21:26:55.405Z,25.27
2022-12-04T21:29:45.302Z,25.53
2022-12-04T21:32:33.854Z,30.73
2022-12-04T21:35:22.432Z,26.80
2022-12-04T21:38:10.957Z,27.73
2022-12-04T21:40:59.722Z,27.03
2022-12-04T21:43:48.147Z,27.60
2022-12-04T21:46:38.123Z,28.07
2022-12-04T21:49:27.015Z,29.07
2022-12-04T21:52:16.435Z,26.83
2022-12-04T21:55:05.498Z,26.80
2022-12-04T21:57:53.983Z,26.03
2022-12-04T22:00:42.701Z,27.13
2022-12-04T22:03:32.553Z,24.00
2022-12-04T22:06:21.263Z,27.03
2022-12-04T22:09:12.205Z,24.60
2022-12-04T22:12:02.186Z,23.53
2022-12-04T22:14:52.929Z,24.60
2022-12-04T22:17:41.582Z,26.50
2022-12-04T22:20:31.494Z,25.33
2022-12-04T22:23:19.982Z,23.13
2022-12-04T22:26:10.007Z,24.03
2022-12-04T22:28:58.975Z,24.40
2022-12-04T22:31:47.632Z,23.13
2022-12-04T22:34:36.188Z,23.30
2022-12-04T22:37:26.233Z,22.87
2022-12-04T22:40:16.466Z,21.83
2022-12-04T22:43:05.253Z,24.53
2022-12-04T22:45:53.711Z,24.33
2022-12-04T22:48:43.353Z,23.97
2022-12-04T22:51:31.968Z,25.03
2022-12-04T22:54:22.007Z,23.97
2022-12-04T22:57:10.527Z,26.17
2022-12-04T22:59:59.371Z,21.73
2022-12-04T23:02:48.117Z,26.27
2022-12-04T23:05:36.655Z,21.97
2022-12-04T23:08:25.194Z,24.70
2022-12-04T23:11:18.478Z,25.10
2022-12-04T23:14:12.389Z,22.97
2022-12-04T23:17:01.061Z,25.27
2022-12-04T23:19:49.771Z,26.70
2022-12-04T23:22:38.315Z,21.83
2022-12-04T23:25:27.366Z,27.10
2022-12-04T23:28:17.140Z,24.60
2022-12-04T23:31:06.231Z,24.83
2022-12-04T23:33:54.780Z,24.97
2022-12-04T23:36:43.241Z,28.30
2022-12-04T23:39:31.730Z,28.77
2022-12-04T23:42:20.235Z,25.10
2022-12-04T23:45:10.978Z,27.47
2022-12-04T23:47:59.444Z,25.60
2022-12-04T23:50:47.885Z,27.20
2022-12-04T23:53:36.454Z,27.30
2022-12-04T23:56:26.870Z,29.43
2022-12-04T23:59:15.318Z,25.93
